Time;durP1;ratioP1;P1;durP2;ratioP2;P2;SDS_P1;SDS_P2;PMS_P1;PMS_P2;Temp;Humidity;BMP_temperature;BMP_pressure;BME280_temperature;BME280_humidity;BME280_pressure;Samples;Min_cycle;Max_cycle;Signal;HPM_P1;HPM_P2
2023/03/06 00:00:47;;;;;;;21.13;15.38;;;3.60;99.90;;;;;;5104988;28;20415;-63
2023/03/06 00:03:13;;;;;;;22.35;15.93;;;3.60;99.90;;;;;;5095610;28;20402;-63
2023/03/06 00:05:41;;;;;;;22.67;15.65;;;3.60;99.90;;;;;;5101568;28;20888;-61
2023/03/06 00:08:07;;;;;;;23.60;16.80;;;3.60;99.90;;;;;;5098557;28;20449;-62
2023/03/06 00:10:34;;;;;;;23.98;18.00;;;3.50;99.90;;;;;;5100506;28;20752;-63
2023/03/06 00:13:05;;;;;;;26.02;18.35;;;3.50;99.90;;;;;;5096922;28;20428;-63
2023/03/06 00:15:32;;;;;;;28.75;19.98;;;3.50;99.90;;;;;;5094066;28;20413;-64
2023/03/06 00:17:59;;;;;;;29.48;20.05;;;3.50;99.90;;;;;;5094901;28;20412;-63
2023/03/06 00:20:26;;;;;;;30.20;20.55;;;3.50;99.90;;;;;;5102600;28;20827;-62
2023/03/06 00:22:55;;;;;;;28.33;20.08;;;3.60;99.90;;;;;;5097782;28;20417;-61
2023/03/06 00:25:22;;;;;;;28.38;20.88;;;3.70;99.90;;;;;;5102475;28;20467;-62
2023/03/06 00:27:49;;;;;;;32.05;22.52;;;3.30;99.90;;;;;;5102145;28;20504;-61
2023/03/06 00:30:20;;;;;;;33.30;23.52;;;3.40;99.90;;;;;;5098115;28;20493;-62
2023/03/06 00:32:46;;;;;;;33.65;23.17;;;3.40;99.90;;;;;;5098394;28;20422;-63
2023/03/06 00:35:14;;;;;;;34.45;23.60;;;3.50;99.90;;;;;;5094539;28;20881;-62
2023/03/06 00:37:41;;;;;;;32.08;22.70;;;3.40;99.90;;;;;;5102212;28;20483;-62
2023/03/06 00:40:11;;;;;;;32.70;23.85;;;3.40;99.90;;;;;;5102716;28;20412;-62
2023/03/06 00:42:37;;;;;;;34.08;25.08;;;3.40;99.90;;;;;;5104149;28;20820;-63
2023/03/06 00:45:04;;;;;;;36.80;25.05;;;3.40;99.90;;;;;;5101578;28;20410;-62
2023/03/06 00:47:33;;;;;;;35.30;25.13;;;3.40;99.90;;;;;;5101402;28;20404;-62
2023/03/06 00:49:59;;;;;;;36.38;25.75;;;3.40;99.90;;;;;;5088271;28;20410;-63
2023/03/06 00:52:26;;;;;;;42.30;28.73;;;3.40;99.90;;;;;;5100098;28;20851;-61
2023/03/06 00:54:53;;;;;;;42.53;28.92;;;3.40;99.90;;;;;;5102308;28;20412;-62
2023/03/06 00:57:19;;;;;;;45.90;32.27;;;3.40;99.90;;;;;;5101028;28;20419;-61
2023/03/06 00:59:46;;;;;;;47.65;31.20;;;3.50;99.90;;;;;;5101576;28;20540;-62
2023/03/06 01:02:12;;;;;;;45.45;31.33;;;3.40;99.90;;;;;;5098000;28;20814;-62
2023/03/06 01:04:41;;;;;;;47.35;30.30;;;3.40;99.90;;;;;;5098532;28;20464;-62
2023/03/06 01:07:07;;;;;;;46.20;31.15;;;3.40;99.90;;;;;;5094803;28;20413;-61
2023/03/06 01:09:34;;;;;;;45.95;30.70;;;3.40;99.90;;;;;;5102872;28;20938;-61
2023/03/06 01:12:01;;;;;;;47.65;31.05;;;3.40;99.90;;;;;;5099394;28;20765;-61
2023/03/06 01:14:27;;;;;;;48.60;31.27;;;3.40;99.90;;;;;;5096739;28;20417;-61
2023/03/06 01:16:54;;;;;;;45.65;30.40;;;3.50;99.90;;;;;;5103078;28;20466;-62
2023/03/06 01:19:21;;;;;;;46.78;30.38;;;3.50;99.90;;;;;;5105449;28;20441;-60
2023/03/06 01:21:49;;;;;;;44.47;30.08;;;3.50;99.90;;;;;;5103911;28;20416;-62
2023/03/06 01:24:16;;;;;;;41.80;27.30;;;3.50;99.90;;;;;;5103152;28;20738;-60
2023/03/06 01:26:42;;;;;;;39.00;26.27;;;3.30;99.90;;;;;;5097859;28;20824;-61
2023/03/06 01:29:09;;;;;;;35.40;24.10;;;3.30;99.90;;;;;;5102318;28;20417;-62
2023/03/06 01:31:36;;;;;;;35.45;23.63;;;3.30;99.90;;;;;;5098775;28;20821;-61
2023/03/06 01:34:03;;;;;;;35.35;23.73;;;3.30;99.90;;;;;;5103976;28;20420;-61
2023/03/06 01:36:29;;;;;;;31.70;22.77;;;3.40;99.90;;;;;;5105095;28;20439;-62
2023/03/06 01:38:57;;;;;;;28.88;21.00;;;3.50;99.90;;;;;;5099173;28;20410;-61
2023/03/06 01:41:24;;;;;;;27.65;20.95;;;3.40;99.90;;;;;;5103452;28;20417;-59
2023/03/06 01:43:51;;;;;;;26.08;19.83;;;3.40;99.90;;;;;;5108291;28;20412;-61
2023/03/06 01:46:29;;;;;;;27.48;20.38;;;3.40;99.90;;;;;;5103474;28;20558;-62
2023/03/06 01:48:59;;;;;;;30.63;21.85;;;3.30;99.90;;;;;;5099262;28;20409;-62
2023/03/06 01:51:30;;;;;;;31.88;22.67;;;3.20;99.90;;;;;;5102493;28;20405;-60
2023/03/06 01:54:01;;;;;;;29.15;20.75;;;3.30;99.90;;;;;;5100537;28;20963;-61
2023/03/06 01:56:28;;;;;;;28.85;20.88;;;3.40;99.90;;;;;;5104585;28;20821;-61
2023/03/06 01:58:55;;;;;;;29.30;21.30;;;3.30;99.90;;;;;;5102677;28;20406;-61
2023/03/06 02:01:22;;;;;;;26.83;20.42;;;3.30;99.90;;;;;;5102469;28;20417;-62
2023/03/06 02:03:50;;;;;;;28.00;20.63;;;3.30;99.90;;;;;;5104955;28;20480;-62
2023/03/06 02:06:20;;;;;;;27.43;20.20;;;3.20;99.90;;;;;;5103556;28;20405;-61
2023/03/06 02:08:47;;;;;;;27.65;20.85;;;3.30;99.90;;;;;;5101624;28;20879;-63
2023/03/06 02:11:21;;;;;;;28.15;20.65;;;3.30;99.90;;;;;;5103656;28;20901;-62
2023/03/06 02:13:50;;;;;;;27.98;21.42;;;3.30;99.90;;;;;;5103582;28;20424;-62
2023/03/06 02:16:20;;;;;;;29.15;21.83;;;3.30;99.90;;;;;;5104327;28;20412;-61
2023/03/06 02:18:47;;;;;;;31.73;22.02;;;3.30;99.90;;;;;;5097538;28;20414;-62
2023/03/06 02:21:19;;;;;;;29.83;22.17;;;3.30;99.90;;;;;;5109622;28;20400;-62
2023/03/06 02:23:56;;;;;;;28.48;21.92;;;3.40;99.90;;;;;;5111830;28;20427;-63
2023/03/06 02:26:26;;;;;;;30.27;22.50;;;3.40;99.90;;;;;;5102704;28;20406;-63
2023/03/06 02:28:53;;;;;;;32.88;24.17;;;3.30;99.90;;;;;;5102719;28;20821;-62
2023/03/06 02:31:23;;;;;;;33.03;23.80;;;3.20;99.90;;;;;;5104078;28;20408;-62
2023/03/06 02:34:06;;;;;;;33.20;23.30;;;3.30;99.90;;;;;;5102286;28;20516;-63
2023/03/06 02:36:36;;;;;;;31.42;23.65;;;3.30;99.90;;;;;;5099429;28;20783;-62
2023/03/06 02:39:03;;;;;;;35.75;23.77;;;3.40;99.90;;;;;;5101843;28;20413;-63
2023/03/06 02:41:32;;;;;;;31.75;23.88;;;3.40;99.90;;;;;;5103817;28;20408;-62
2023/03/06 02:43:58;;;;;;;33.17;24.17;;;3.30;99.90;;;;;;5102389;28;20409;-63
2023/03/06 02:46:25;;;;;;;34.53;25.43;;;3.30;99.90;;;;;;5101239;28;20409;-63
2023/03/06 02:48:51;;;;;;;38.15;27.02;;;3.30;99.90;;;;;;5102868;28;20412;-63
2023/03/06 02:51:18;;;;;;;37.83;25.52;;;3.20;99.90;;;;;;5103966;28;20408;-62
2023/03/06 02:53:45;;;;;;;35.53;25.17;;;3.20;99.90;;;;;;5101934;28;20761;-63
2023/03/06 02:56:12;;;;;;;39.03;26.75;;;3.20;99.90;;;;;;5101380;28;20455;-63
2023/03/06 02:58:40;;;;;;;38.25;26.75;;;3.10;99.90;;;;;;5103723;28;20408;-62
2023/03/06 03:01:07;;;;;;;38.38;26.70;;;3.10;99.90;;;;;;5102051;28;20414;-63
2023/03/06 03:03:34;;;;;;;38.50;26.45;;;3.00;99.90;;;;;;5101643;28;20416;-62
2023/03/06 03:06:01;;;;;;;39.43;26.50;;;3.10;99.90;;;;;;5103436;28;20457;-63
2023/03/06 03:08:28;;;;;;;39.58;27.40;;;3.10;99.90;;;;;;5103131;28;20409;-63
2023/03/06 03:10:55;;;;;;;41.60;26.58;;;3.10;99.90;;;;;;5097044;28;20771;-62
2023/03/06 03:13:23;;;;;;;41.38;28.52;;;3.10;99.90;;;;;;5103456;28;20922;-62
2023/03/06 03:15:59;;;;;;;41.13;28.05;;;3.00;99.90;;;;;;5099981;28;20420;-63
2023/03/06 03:18:26;;;;;;;46.67;29.27;;;3.10;99.90;;;;;;5099559;28;20402;-62
2023/03/06 03:20:52;;;;;;;45.40;30.30;;;3.00;99.90;;;;;;5100542;28;20459;-63
2023/03/06 03:23:19;;;;;;;46.63;29.13;;;3.00;99.90;;;;;;5101426;28;20886;-63
2023/03/06 03:25:46;;;;;;;45.55;29.95;;;3.00;99.90;;;;;;5103098;28;20404;-63
2023/03/06 03:28:12;;;;;;;45.72;29.25;;;3.00;99.90;;;;;;5101152;28;20471;-62
2023/03/06 03:30:39;;;;;;;49.28;31.27;;;3.00;99.90;;;;;;5100490;28;20414;-62
2023/03/06 03:33:08;;;;;;;45.92;29.80;;;3.00;99.90;;;;;;5102923;28;20419;-61
2023/03/06 03:35:35;;;;;;;45.08;30.63;;;3.00;99.90;;;;;;5101640;28;20411;-63
2023/03/06 03:38:02;;;;;;;51.88;32.63;;;2.90;99.90;;;;;;5099876;28;20798;-63
2023/03/06 03:40:29;;;;;;;52.58;32.80;;;2.90;99.90;;;;;;5101670;28;20429;-63
2023/03/06 03:42:55;;;;;;;50.78;32.65;;;2.80;99.90;;;;;;5102788;28;20461;-63
2023/03/06 03:45:22;;;;;;;52.47;32.28;;;2.80;99.90;;;;;;5100104;28;20444;-63
2023/03/06 03:47:49;;;;;;;53.15;34.22;;;2.80;99.90;;;;;;5100944;28;20398;-62
2023/03/06 03:50:18;;;;;;;49.00;31.98;;;2.70;99.90;;;;;;5102511;28;20472;-63
2023/03/06 03:52:44;;;;;;;46.17;31.00;;;2.80;99.90;;;;;;5101385;28;20613;-62
2023/03/06 03:55:11;;;;;;;50.63;30.80;;;2.90;99.90;;;;;;5099576;28;20414;-63
2023/03/06 03:57:38;;;;;;;43.60;30.07;;;2.90;99.90;;;;;;5102183;28;20408;-61
2023/03/06 04:00:06;;;;;;;47.70;30.95;;;2.90;99.90;;;;;;5101530;28;20528;-61
2023/03/06 04:02:33;;;;;;;44.90;29.97;;;2.70;99.90;;;;;;5099752;28;20429;-61
2023/03/06 04:05:00;;;;;;;45.45;30.73;;;2.80;99.90;;;;;;5100912;28;20562;-61
2023/03/06 04:07:28;;;;;;;45.83;29.60;;;2.80;99.90;;;;;;5102022;28;20481;-60
2023/03/06 04:09:55;;;;;;;43.67;29.52;;;2.80;99.90;;;;;;5100494;28;20471;-60
2023/03/06 04:12:21;;;;;;;41.53;28.67;;;2.70;99.90;;;;;;5099957;28;20418;-61
2023/03/06 04:14:48;;;;;;;46.50;29.00;;;2.80;99.90;;;;;;5101991;28;20469;-61
2023/03/06 04:17:14;;;;;;;39.58;26.50;;;2.80;99.90;;;;;;5101027;28;20527;-61
2023/03/06 04:19:41;;;;;;;35.30;24.48;;;2.80;99.90;;;;;;5099332;28;20966;-62
2023/03/06 04:22:08;;;;;;;35.72;23.15;;;2.80;99.90;;;;;;5101261;28;20455;-61
2023/03/06 04:24:36;;;;;;;32.70;23.13;;;2.80;99.90;;;;;;5101848;28;20408;-62
2023/03/06 04:27:03;;;;;;;33.17;22.35;;;2.70;99.90;;;;;;5101877;28;20417;-61
2023/03/06 04:29:30;;;;;;;31.05;20.25;;;2.80;99.90;;;;;;5101066;28;20956;-62
2023/03/06 04:31:56;;;;;;;28.52;18.90;;;2.80;99.90;;;;;;5099243;28;20418;-62
2023/03/06 04:34:23;;;;;;;25.02;18.73;;;2.80;99.90;;;;;;5100916;28;20420;-62
2023/03/06 04:36:49;;;;;;;32.40;17.47;;;2.80;99.90;;;;;;5101382;28;20571;-60
2023/03/06 04:39:16;;;;;;;25.35;18.10;;;2.80;99.90;;;;;;5095689;28;20410;-61
2023/03/06 04:41:44;;;;;;;25.63;17.80;;;2.80;99.90;;;;;;5100472;28;20492;-61
2023/03/06 04:44:11;;;;;;;25.20;17.27;;;2.80;99.90;;;;;;5100460;28;20455;-61
2023/03/06 04:46:37;;;;;;;24.10;17.48;;;2.80;99.90;;;;;;5100795;28;20412;-61
2023/03/06 04:49:04;;;;;;;28.55;18.30;;;2.90;99.90;;;;;;5101575;28;20404;-61
2023/03/06 04:51:31;;;;;;;29.55;19.60;;;2.80;99.90;;;;;;5098542;28;20437;-60
2023/03/06 04:53:59;;;;;;;27.88;19.67;;;2.80;99.90;;;;;;5104894;28;20479;-62
2023/03/06 04:56:25;;;;;;;28.90;19.73;;;2.80;99.90;;;;;;5106316;28;20412;-61
2023/03/06 04:58:53;;;;;;;26.30;19.50;;;3.00;99.90;;;;;;5102711;28;20410;-59
2023/03/06 05:01:20;;;;;;;25.70;19.02;;;3.00;99.90;;;;;;5105739;28;20484;-61
2023/03/06 05:03:48;;;;;;;28.63;19.80;;;3.00;99.90;;;;;;5103503;28;20410;-62
2023/03/06 05:06:15;;;;;;;30.55;20.48;;;3.00;99.90;;;;;;5103708;28;20825;-61
2023/03/06 05:08:41;;;;;;;28.70;20.75;;;3.00;99.90;;;;;;5105680;28;20547;-61
2023/03/06 05:11:08;;;;;;;30.90;21.27;;;3.00;99.90;;;;;;5104343;28;20406;-62
2023/03/06 05:13:35;;;;;;;34.88;22.50;;;3.00;99.90;;;;;;5105419;28;20420;-61
2023/03/06 05:16:04;;;;;;;33.50;22.88;;;3.00;99.90;;;;;;5101691;28;20416;-62
2023/03/06 05:18:31;;;;;;;33.33;22.20;;;3.00;99.90;;;;;;5104858;28;20835;-61
2023/03/06 05:20:58;;;;;;;35.65;24.02;;;3.00;99.90;;;;;;5102990;28;20474;-62
2023/03/06 05:23:25;;;;;;;34.50;23.33;;;3.00;99.90;;;;;;5104025;28;20421;-62
2023/03/06 05:25:52;;;;;;;33.22;23.30;;;3.00;99.90;;;;;;5105512;28;20403;-61
2023/03/06 05:28:19;;;;;;;36.25;23.30;;;3.00;99.90;;;;;;5104398;28;20405;-63
2023/03/06 05:30:46;;;;;;;34.97;23.87;;;2.90;99.90;;;;;;5103670;28;20410;-62
2023/03/06 05:33:14;;;;;;;33.53;22.90;;;2.90;99.90;;;;;;5106302;28;20451;-63
2023/03/06 05:35:45;;;;;;;31.95;22.85;;;2.90;99.90;;;;;;5118661;28;20420;-62
2023/03/06 05:38:12;;;;;;;33.40;22.67;;;2.90;99.90;;;;;;5104241;28;20485;-62
2023/03/06 05:40:40;;;;;;;32.25;23.33;;;2.80;99.90;;;;;;5107022;28;20904;-63
2023/03/06 05:43:07;;;;;;;33.85;22.95;;;2.90;99.90;;;;;;5105403;28;20491;-62
2023/03/06 05:45:34;;;;;;;35.08;23.48;;;2.80;99.90;;;;;;5102779;28;20410;-62
2023/03/06 05:48:01;;;;;;;35.40;23.65;;;2.80;99.90;;;;;;5102454;28;20409;-62
2023/03/06 05:50:29;;;;;;;33.78;22.88;;;2.80;99.90;;;;;;5104719;28;20461;-61
2023/03/06 05:52:56;;;;;;;34.10;23.52;;;2.70;99.90;;;;;;5101015;28;20779;-62
2023/03/06 05:55:23;;;;;;;36.58;24.70;;;2.70;99.90;;;;;;5104781;28;20473;-61
2023/03/06 05:57:50;;;;;;;38.33;25.48;;;2.60;99.90;;;;;;5104023;28;20836;-66
2023/03/06 06:00:18;;;;;;;39.20;25.83;;;2.50;99.90;;;;;;5101627;28;20418;-64
2023/03/06 06:02:45;;;;;;;42.30;27.23;;;2.50;99.90;;;;;;5103546;28;20411;-65
2023/03/06 06:05:12;;;;;;;40.28;27.02;;;2.50;99.90;;;;;;5104290;28;20404;-65
2023/03/06 06:07:41;;;;;;;41.22;27.95;;;2.60;99.90;;;;;;5098583;28;20410;-64
2023/03/06 06:10:09;;;;;;;43.55;27.88;;;2.60;99.90;;;;;;5102504;28;20417;-65
2023/03/06 06:12:36;;;;;;;41.22;26.73;;;2.60;99.90;;;;;;5101614;28;20411;-66
2023/03/06 06:15:03;;;;;;;40.43;25.60;;;2.50;99.90;;;;;;5100477;28;20420;-64
2023/03/06 06:17:30;;;;;;;37.97;25.00;;;2.50;99.90;;;;;;5104886;28;20521;-65
2023/03/06 06:19:57;;;;;;;39.65;25.88;;;2.40;99.90;;;;;;5105450;28;20414;-65
2023/03/06 06:22:24;;;;;;;38.88;24.20;;;2.40;99.90;;;;;;5102411;28;20409;-64
2023/03/06 06:24:52;;;;;;;37.08;22.80;;;2.50;99.90;;;;;;5104869;28;20412;-64
2023/03/06 06:27:19;;;;;;;34.10;22.63;;;2.40;99.90;;;;;;5102993;28;20418;-64
2023/03/06 06:29:46;;;;;;;34.60;22.17;;;2.40;99.90;;;;;;5101666;28;20405;-64
2023/03/06 06:32:12;;;;;;;34.17;22.77;;;2.50;99.90;;;;;;5105607;28;20478;-64
2023/03/06 06:34:39;;;;;;;35.97;23.20;;;2.50;99.90;;;;;;5101673;28;20472;-64
2023/03/06 06:37:06;;;;;;;35.65;23.25;;;2.50;99.90;;;;;;5101290;28;20409;-64
2023/03/06 06:39:33;;;;;;;31.35;21.73;;;2.50;99.90;;;;;;5102045;28;20421;-65
2023/03/06 06:42:01;;;;;;;33.28;22.63;;;2.60;99.90;;;;;;5103928;28;20416;-65
2023/03/06 06:44:27;;;;;;;33.50;22.13;;;2.60;99.90;;;;;;5102869;28;20436;-65
2023/03/06 06:46:54;;;;;;;35.97;22.48;;;2.60;99.90;;;;;;5101136;28;20471;-65
2023/03/06 06:49:20;;;;;;;39.28;24.65;;;2.60;99.90;;;;;;5097556;28;20406;-66
2023/03/06 06:51:47;;;;;;;37.22;24.52;;;2.50;99.90;;;;;;5101662;28;20437;-64
2023/03/06 06:54:14;;;;;;;40.72;25.52;;;2.40;99.90;;;;;;5100796;28;20495;-65
2023/03/06 06:56:40;;;;;;;37.25;24.83;;;2.40;99.90;;;;;;5102717;28;20419;-65
2023/03/06 06:59:10;;;;;;;39.85;25.60;;;2.50;99.90;;;;;;5103556;28;20408;-64
2023/03/06 07:01:36;;;;;;;38.33;25.42;;;2.50;99.90;;;;;;5098196;28;20405;-65
2023/03/06 07:04:03;;;;;;;41.78;27.67;;;2.60;99.90;;;;;;5101613;28;20414;-64
2023/03/06 07:06:30;;;;;;;40.65;25.65;;;2.60;99.90;;;;;;5103271;28;20454;-64
2023/03/06 07:08:56;;;;;;;39.35;25.45;;;2.60;99.90;;;;;;5101525;28;20966;-64
2023/03/06 07:11:23;;;;;;;37.90;25.20;;;2.70;99.90;;;;;;5100750;28;20416;-64
2023/03/06 07:13:50;;;;;;;38.72;25.33;;;2.70;99.90;;;;;;5100407;28;20417;-64
2023/03/06 07:16:18;;;;;;;42.63;26.43;;;2.60;99.90;;;;;;5102239;28;20458;-64
2023/03/06 07:18:45;;;;;;;41.40;26.90;;;2.60;99.90;;;;;;5099749;28;20404;-64
2023/03/06 07:21:12;;;;;;;39.67;25.98;;;2.60;99.90;;;;;;5101756;28;20414;-65
2023/03/06 07:23:39;;;;;;;44.05;28.05;;;2.60;99.90;;;;;;5100453;28;20410;-64
2023/03/06 07:26:06;;;;;;;43.15;27.35;;;2.70;99.90;;;;;;5102278;28;20430;-65
2023/03/06 07:28:32;;;;;;;44.67;27.70;;;2.80;99.90;;;;;;5099065;28;20459;-65
2023/03/06 07:30:59;;;;;;;43.63;26.42;;;2.80;99.90;;;;;;5102934;28;20613;-65
2023/03/06 07:33:27;;;;;;;43.03;27.02;;;2.80;99.90;;;;;;5101482;28;20831;-65
2023/03/06 07:35:54;;;;;;;40.33;25.35;;;2.90;99.90;;;;;;5103116;28;20821;-64
2023/03/06 07:38:20;;;;;;;47.37;27.30;;;2.90;99.90;;;;;;5102654;28;20408;-64
2023/03/06 07:40:50;;;;;;;45.63;26.92;;;2.80;99.90;;;;;;5102248;28;20409;-64
2023/03/06 07:43:17;;;;;;;43.10;25.88;;;2.80;99.90;;;;;;5097012;28;20895;-64
2023/03/06 07:45:45;;;;;;;42.25;26.30;;;2.70;99.90;;;;;;5100325;28;20936;-65
2023/03/06 07:48:13;;;;;;;46.63;27.08;;;2.80;99.90;;;;;;5100036;28;20414;-65
2023/03/06 07:50:42;;;;;;;41.97;25.40;;;2.80;99.90;;;;;;5101029;28;20408;-64
2023/03/06 07:53:09;;;;;;;42.80;26.10;;;2.80;99.90;;;;;;5103499;28;20432;-63
2023/03/06 07:55:35;;;;;;;45.58;26.50;;;2.70;99.90;;;;;;5104002;28;20421;-63
2023/03/06 07:58:02;;;;;;;44.77;26.40;;;2.70;99.90;;;;;;5103721;28;21035;-64
2023/03/06 08:00:29;;;;;;;44.10;26.95;;;2.80;99.90;;;;;;5098784;28;20408;-64
2023/03/06 08:02:55;;;;;;;46.92;27.05;;;2.80;99.90;;;;;;5105940;28;20403;-64
2023/03/06 08:05:22;;;;;;;47.90;27.40;;;2.80;99.90;;;;;;5103930;28;20434;-64
2023/03/06 08:07:50;;;;;;;46.58;27.38;;;2.80;99.90;;;;;;5091615;28;20421;-64
2023/03/06 08:10:17;;;;;;;48.27;27.73;;;2.80;99.90;;;;;;5098926;28;20474;-64
2023/03/06 08:12:44;;;;;;;46.15;27.33;;;2.80;99.90;;;;;;5101858;28;20889;-64
2023/03/06 08:15:12;;;;;;;49.83;28.63;;;2.90;99.90;;;;;;5100274;28;20436;-64
2023/03/06 08:17:39;;;;;;;49.25;28.05;;;2.90;99.90;;;;;;5100657;28;20479;-64
2023/03/06 08:20:09;;;;;;;43.28;26.52;;;2.90;99.90;;;;;;5100994;28;20405;-65
2023/03/06 08:22:35;;;;;;;43.35;26.15;;;3.00;99.90;;;;;;5103075;28;20412;-65
2023/03/06 08:25:05;;;;;;;40.37;24.80;;;3.00;99.90;;;;;;5107295;28;20821;-65
2023/03/06 08:27:32;;;;;;;42.13;26.27;;;3.00;99.90;;;;;;5106799;28;20461;-65
2023/03/06 08:29:59;;;;;;;42.40;25.27;;;3.10;99.90;;;;;;5098699;28;20415;-65
2023/03/06 08:32:26;;;;;;;41.03;24.20;;;3.20;99.90;;;;;;5105726;28;20407;-64
2023/03/06 08:34:53;;;;;;;42.08;24.60;;;3.20;99.90;;;;;;5103228;28;20446;-65
2023/03/06 08:37:19;;;;;;;37.67;22.88;;;3.30;99.90;;;;;;5107096;28;20809;-66
2023/03/06 08:39:46;;;;;;;34.50;21.98;;;3.40;99.90;;;;;;5099774;28;20406;-65
2023/03/06 08:42:14;;;;;;;37.58;21.33;;;3.40;99.90;;;;;;5107268;28;20949;-65
2023/03/06 08:44:41;;;;;;;34.72;20.60;;;3.30;99.90;;;;;;5104982;28;20832;-65
2023/03/06 08:47:08;;;;;;;32.80;21.13;;;3.40;99.90;;;;;;5118041;28;20440;-65
2023/03/06 08:49:37;;;;;;;33.85;21.45;;;3.30;99.90;;;;;;5105898;28;20447;-65
2023/03/06 08:52:03;;;;;;;30.70;20.65;;;3.50;99.90;;;;;;5098574;28;20454;-66
2023/03/06 08:54:30;;;;;;;28.83;17.83;;;3.60;99.90;;;;;;5094208;28;20417;-65
2023/03/06 08:56:57;;;;;;;29.02;17.63;;;3.60;99.90;;;;;;5105190;28;20415;-65
2023/03/06 08:59:25;;;;;;;31.30;19.17;;;3.30;99.90;;;;;;5090030;28;20409;-65
2023/03/06 09:01:52;;;;;;;33.83;19.05;;;3.20;99.90;;;;;;5101446;28;20416;-65
2023/03/06 09:04:19;;;;;;;31.88;20.52;;;3.20;99.90;;;;;;5106129;28;20395;-65
2023/03/06 09:06:46;;;;;;;34.92;21.67;;;3.00;99.90;;;;;;5098013;28;20408;-65
2023/03/06 09:09:13;;;;;;;34.60;21.35;;;3.10;99.90;;;;;;5101791;28;20416;-66
2023/03/06 09:11:40;;;;;;;33.78;21.75;;;3.20;99.90;;;;;;5101837;28;20752;-64
2023/03/06 09:14:07;;;;;;;35.88;21.92;;;3.20;99.90;;;;;;5097568;28;20448;-64
2023/03/06 09:16:35;;;;;;;37.10;23.42;;;3.30;99.90;;;;;;5100337;28;20473;-64
2023/03/06 09:19:01;;;;;;;37.80;23.17;;;3.30;99.90;;;;;;5093795;28;20888;-66
2023/03/06 09:21:28;;;;;;;38.35;23.45;;;3.30;99.90;;;;;;5094232;28;20463;-64
2023/03/06 09:23:55;;;;;;;36.03;22.67;;;3.30;99.90;;;;;;5091635;28;20961;-64
2023/03/06 09:26:22;;;;;;;36.78;21.95;;;3.30;99.90;;;;;;5100533;28;20465;-64
2023/03/06 09:28:49;;;;;;;43.03;25.35;;;3.30;99.90;;;;;;5101937;28;20793;-64
2023/03/06 09:31:18;;;;;;;41.95;25.27;;;3.30;99.90;;;;;;5096437;28;20405;-64
2023/03/06 09:33:47;;;;;;;43.45;25.73;;;3.20;99.90;;;;;;5098141;28;20471;-64
2023/03/06 09:36:15;;;;;;;40.40;24.50;;;3.30;99.90;;;;;;5093950;28;20421;-64
2023/03/06 09:38:42;;;;;;;42.37;24.73;;;3.40;99.90;;;;;;5105160;28;20442;-64
2023/03/06 09:41:25;;;;;;;39.22;23.38;;;3.50;99.90;;;;;;5101153;28;20408;-64
2023/03/06 09:43:55;;;;;;;42.97;24.80;;;3.30;99.90;;;;;;5099646;28;20412;-63
2023/03/06 09:46:28;;;;;;;42.35;26.10;;;3.30;99.90;;;;;;5101026;28;20417;-64
2023/03/06 09:49:09;;;;;;;44.28;25.83;;;3.30;99.90;;;;;;5102325;28;20489;-64
2023/03/06 09:51:47;;;;;;;45.67;27.25;;;3.40;99.90;;;;;;5092726;28;20867;-65
2023/03/06 09:54:15;;;;;;;48.90;28.45;;;3.30;99.90;;;;;;5095116;28;20492;-65
2023/03/06 09:56:47;;;;;;;44.47;27.42;;;3.40;99.90;;;;;;5109423;28;20428;-65
2023/03/06 09:59:20;;;;;;;48.83;27.90;;;3.50;99.90;;;;;;5098781;28;20460;-65
2023/03/06 10:01:56;;;;;;;45.40;27.85;;;3.50;99.90;;;;;;5106008;28;20408;-65
2023/03/06 10:04:34;;;;;;;47.47;28.97;;;3.50;99.90;;;;;;5105802;28;20465;-65
2023/03/06 10:07:07;;;;;;;46.70;28.75;;;3.50;99.90;;;;;;5099823;28;20409;-65
2023/03/06 10:09:41;;;;;;;50.90;30.15;;;3.40;99.90;;;;;;5101837;28;20538;-64
2023/03/06 10:12:22;;;;;;;50.70;30.27;;;3.50;99.90;;;;;;5102150;28;20531;-65
2023/03/06 10:14:59;;;;;;;48.47;30.40;;;3.40;99.90;;;;;;5101519;28;20471;-65
2023/03/06 10:17:28;;;;;;;51.00;31.17;;;3.40;99.90;;;;;;5097738;28;20405;-65
2023/03/06 10:19:56;;;;;;;48.28;31.00;;;3.30;99.90;;;;;;5100747;28;20467;-65
2023/03/06 10:22:27;;;;;;;51.10;31.98;;;3.40;99.90;;;;;;5104630;28;20881;-65
2023/03/06 10:24:59;;;;;;;47.92;32.17;;;3.40;99.90;;;;;;5104799;28;20410;-65
2023/03/06 10:27:36;;;;;;;51.17;32.87;;;3.50;99.90;;;;;;5105511;28;20483;-66
2023/03/06 10:30:15;;;;;;;51.58;32.63;;;3.50;99.90;;;;;;5093199;28;20412;-63
2023/03/06 10:32:49;;;;;;;48.43;31.37;;;3.60;99.90;;;;;;5104241;28;20410;-63
2023/03/06 10:35:19;;;;;;;49.63;31.70;;;3.70;99.90;;;;;;5103832;28;20473;-63
2023/03/06 10:37:47;;;;;;;47.00;30.23;;;3.70;99.90;;;;;;5094683;28;20405;-66
2023/03/06 10:40:17;;;;;;;48.10;30.85;;;3.70;99.90;;;;;;5105034;28;20416;-66
2023/03/06 10:42:44;;;;;;;46.43;30.20;;;3.80;99.90;;;;;;5090566;28;21056;-63
2023/03/06 10:45:13;;;;;;;44.60;29.40;;;3.90;99.90;;;;;;5101961;28;20467;-63
2023/03/06 10:47:41;;;;;;;43.63;29.05;;;4.00;99.90;;;;;;5102783;28;20821;-63
2023/03/06 10:50:24;;;;;;;39.90;27.35;;;4.20;99.90;;;;;;5102620;28;20406;-64
2023/03/06 10:53:00;;;;;;;38.15;25.75;;;4.40;99.90;;;;;;5106380;28;20457;-65
2023/03/06 10:55:30;;;;;;;40.10;27.77;;;4.50;99.90;;;;;;5100334;28;20427;-65
2023/03/06 10:57:57;;;;;;;37.92;26.70;;;4.70;99.90;;;;;;5103187;28;20411;-65
2023/03/06 11:00:29;;;;;;;40.00;28.33;;;4.70;99.90;;;;;;5097181;28;20426;-65
2023/03/06 11:03:22;;;;;;;42.80;30.05;;;4.30;99.90;;;;;;5104619;28;20408;-65
2023/03/06 11:06:06;;;;;;;41.55;30.17;;;4.20;99.90;;;;;;5095922;28;20467;-65
2023/03/06 11:08:34;;;;;;;47.10;32.70;;;4.10;99.90;;;;;;5099593;28;20775;-65
2023/03/06 11:11:05;;;;;;;42.50;29.00;;;4.00;99.90;;;;;;5098624;28;21338;-65
2023/03/06 11:13:34;;;;;;;39.73;29.33;;;4.10;98.70;;;;;;5097359;28;20432;-65
2023/03/06 11:16:04;;;;;;;40.28;28.70;;;4.20;98.90;;;;;;5104438;28;20918;-65
2023/03/06 11:18:35;;;;;;;35.30;25.85;;;4.30;98.90;;;;;;5097459;28;20406;-65
2023/03/06 11:21:07;;;;;;;38.15;26.98;;;4.40;73.50;;;;;;5108187;28;20790;-65
2023/03/06 11:23:41;;;;;;;36.63;26.80;;;4.40;71.70;;;;;;5092512;28;20404;-65
2023/03/06 11:26:28;;;;;;;37.07;25.73;;;4.30;59.40;;;;;;5099023;28;20490;-65
2023/03/06 11:29:05;;;;;;;35.05;25.33;;;4.10;67.70;;;;;;5100067;28;20516;-65
2023/03/06 11:31:34;;;;;;;37.67;25.95;;;4.30;58.70;;;;;;5100600;28;20773;-65
2023/03/06 11:34:09;;;;;;;31.55;22.58;;;4.40;59.00;;;;;;5100531;28;20765;-66
2023/03/06 11:36:43;;;;;;;26.30;18.73;;;4.50;31.90;;;;;;5099028;28;20422;-64
2023/03/06 11:39:21;;;;;;;27.15;20.83;;;4.30;16.10;;;;;;5102504;28;20774;-64
2023/03/06 11:41:53;;;;;;;25.85;19.60;;;4.40;49.50;;;;;;5095868;28;20544;-64
2023/03/06 11:44:27;;;;;;;29.33;22.13;;;4.60;36.80;;;;;;5090906;28;20410;-64
2023/03/06 11:47:05;;;;;;;28.33;21.05;;;4.80;44.20;;;;;;5101596;28;20459;-64
2023/03/06 11:49:37;;;;;;;27.98;20.42;;;5.00;41.20;;;;;;5100603;28;20406;-63
2023/03/06 11:52:11;;;;;;;22.35;16.55;;;5.30;6.40;;;;;;5095968;28;20892;-64
2023/03/06 11:54:38;;;;;;;18.50;13.50;;;5.60;1.00;;;;;;5108683;28;20457;-64
2023/03/06 11:57:11;;;;;;;16.70;12.73;;;5.80;1.00;;;;;;5123683;28;20422;-64
2023/03/06 11:59:59;;;;;;;15.90;12.07;;;5.90;1.00;;;;;;5118920;28;20412;-65
2023/03/06 12:02:39;;;;;;;15.13;11.15;;;6.00;1.00;;;;;;5087491;28;20835;-63
2023/03/06 12:05:28;;;;;;;11.25;8.10;;;6.10;99.90;;;;;;5093754;28;20410;-64
2023/03/06 12:08:03;;;;;;;13.75;9.70;;;6.10;1.00;;;;;;5084398;28;20429;-65
2023/03/06 12:10:35;;;;;;;13.75;10.18;;;6.10;35.20;;;;;;5090465;28;20479;-65
2023/03/06 12:13:24;;;;;;;14.67;11.07;;;6.10;99.90;;;;;;5096833;28;20520;-66
2023/03/06 12:16:21;;;;;;;12.27;9.98;;;5.90;1.00;;;;;;5096941;28;20471;-66
2023/03/06 12:18:57;;;;;;;16.27;13.15;;;6.00;1.00;;;;;;5092310;28;20407;-68
2023/03/06 12:21:33;;;;;;;15.70;12.52;;;5.80;99.90;;;;;;5105689;28;20408;-68
2023/03/06 12:24:15;;;;;;;18.40;13.80;;;5.60;99.90;;;;;;5097727;28;20896;-68
2023/03/06 12:27:04;;;;;;;16.43;12.13;;;5.60;1.00;;;;;;5098441;28;20457;-66
2023/03/06 12:29:49;;;;;;;15.27;11.30;;;5.60;1.00;;;;;;5100476;28;20747;-64
2023/03/06 12:32:26;;;;;;;15.85;10.90;;;5.60;99.90;;;;;;5098210;28;20737;-66
2023/03/06 12:35:06;;;;;;;16.00;11.02;;;5.70;27.00;;;;;;5102557;28;20408;-65
2023/03/06 12:37:43;;;;;;;15.10;11.10;;;5.70;1.00;;;;;;5098399;28;20426;-66
2023/03/06 12:40:38;;;;;;;15.05;11.82;;;5.50;1.00;;;;;;5097188;28;20455;-65
2023/03/06 12:43:25;;;;;;;15.82;12.13;;;5.60;52.10;;;;;;5099328;28;20412;-67
2023/03/06 12:45:57;;;;;;;16.98;12.30;;;5.90;99.90;;;;;;5102299;28;20406;-66
2023/03/06 12:48:29;;;;;;;15.30;11.77;;;6.10;99.90;;;;;;5085039;28;20419;-65